Time;durP1;ratioP1;P1;durP2;ratioP2;P2;SDS_P1;SDS_P2;PMS_P1;PMS_P2;Temp;Humidity;BMP_temperature;BMP_pressure;BME280_temperature;BME280_humidity;BME280_pressure;Samples;Min_cycle;Max_cycle;Signal;HPM_P1;HPM_P2
2023/07/30 00:01:48;;;;;;;6.70;3.83;;;;;;;23.15;99.92;98634.91;5132652;27;20068;-46
2023/07/30 00:04:13;;;;;;;8.95;4.43;;;;;;;23.25;98.46;98629.44;5132728;27;20031;-46
2023/07/30 00:06:39;;;;;;;9.63;4.45;;;;;;;23.17;97.62;98622.81;5134508;27;20034;-46
2023/07/30 00:09:05;;;;;;;8.35;5.00;;;;;;;23.15;99.11;98624.97;5134328;27;20098;-46
2023/07/30 00:11:33;;;;;;;11.10;4.80;;;;;;;23.15;99.94;98616.16;5132940;27;20031;-45
2023/07/30 00:13:58;;;;;;;8.30;3.63;;;;;;;22.99;96.12;98620.84;5132857;27;20019;-45
2023/07/30 00:16:26;;;;;;;12.07;5.10;;;;;;;22.58;94.28;98615.84;5133153;27;20503;-46
2023/07/30 00:18:52;;;;;;;5.82;4.28;;;;;;;22.24;94.17;98620.13;5134227;27;20374;-46
2023/07/30 00:21:17;;;;;;;5.35;3.95;;;;;;;21.98;95.27;98632.84;5134041;27;20192;-45
2023/07/30 00:23:43;;;;;;;10.13;4.13;;;;;;;21.72;96.70;98640.97;5132778;27;20072;-46
2023/07/30 00:26:08;;;;;;;6.95;3.85;;;;;;;21.49;98.08;98634.41;5132946;27;20074;-46
2023/07/30 00:28:34;;;;;;;9.05;4.50;;;;;;;21.55;98.91;98645.88;5132721;27;20492;-45
2023/07/30 00:31:00;;;;;;;11.88;4.05;;;;;;;21.63;100.00;98652.50;5133913;27;20184;-46
2023/07/30 00:33:25;;;;;;;12.00;4.25;;;;;;;21.72;100.00;98662.34;5133851;27;20026;-45
2023/07/30 00:35:52;;;;;;;10.60;4.82;;;;;;;21.71;100.00;98663.44;5132534;27;20377;-45
2023/07/30 00:38:18;;;;;;;13.80;5.75;;;;;;;21.54;100.00;98668.31;5132624;27;20094;-44
2023/07/30 00:40:44;;;;;;;14.35;4.82;;;;;;;21.32;100.00;98673.94;5132436;27;20019;-44
2023/07/30 00:43:10;;;;;;;11.20;5.25;;;;;;;21.31;100.00;98667.81;5133706;27;20027;-44
2023/07/30 00:45:38;;;;;;;10.77;6.00;;;;;;;21.42;100.00;98657.91;5133665;27;20208;-44
2023/07/30 00:48:04;;;;;;;16.77;5.40;;;;;;;21.45;100.00;98654.72;5132312;27;20027;-43
2023/07/30 00:50:30;;;;;;;13.52;5.55;;;;;;;21.35;100.00;98646.72;5133527;27;20023;-44
2023/07/30 00:52:56;;;;;;;12.10;5.70;;;;;;;21.42;100.00;98649.09;5115246;27;20098;-44
2023/07/30 00:55:22;;;;;;;14.20;7.35;;;;;;;21.21;100.00;98659.00;5132478;27;20184;-44
2023/07/30 00:57:48;;;;;;;7.72;5.43;;;;;;;21.01;100.00;98675.91;5133362;27;20022;-44
2023/07/30 01:00:14;;;;;;;9.90;6.20;;;;;;;20.94;100.00;98681.47;5132056;27;20118;-44
2023/07/30 01:02:40;;;;;;;13.13;6.05;;;;;;;21.02;100.00;98669.47;5132191;27;20023;-44
2023/07/30 01:05:06;;;;;;;14.10;6.43;;;;;;;21.15;100.00;98650.25;5132936;27;20457;-44
2023/07/30 01:07:32;;;;;;;11.30;4.93;;;;;;;21.08;100.00;98649.72;5131970;27;20025;-44
2023/07/30 01:10:00;;;;;;;8.88;5.38;;;;;;;20.78;100.00;98662.00;5131945;27;20031;-44
2023/07/30 01:12:26;;;;;;;17.75;7.45;;;;;;;20.90;100.00;98673.22;5131839;27;20027;-44
2023/07/30 01:14:54;;;;;;;14.73;11.23;;;;;;;21.35;100.00;98663.53;5114411;27;20023;-44
2023/07/30 01:17:21;;;;;;;14.35;5.95;;;;;;;21.78;100.00;98654.34;5131844;27;20027;-44
2023/07/30 01:19:49;;;;;;;5.75;4.65;;;;;;;21.81;100.00;98662.59;5133108;27;20034;-44
2023/07/30 01:22:15;;;;;;;10.57;4.80;;;;;;;21.61;100.00;98657.31;5133335;27;20089;-44
2023/07/30 01:24:41;;;;;;;7.22;5.03;;;;;;;21.26;100.00;98651.81;5131810;27;20034;-44
2023/07/30 01:27:11;;;;;;;12.40;6.70;;;;;;;20.98;100.00;98658.53;5131923;27;20453;-44
2023/07/30 01:29:54;;;;;;;10.52;4.70;;;;;;;20.76;100.00;98666.81;5132978;27;20477;-44
2023/07/30 01:32:25;;;;;;;11.63;6.00;;;;;;;20.58;100.00;98664.66;5132961;27;20031;-44
2023/07/30 01:34:53;;;;;;;11.23;9.10;;;;;;;20.46;100.00;98652.38;5132964;27;20396;-44
2023/07/30 01:37:20;;;;;;;13.60;8.07;;;;;;;20.34;100.00;98665.97;5132846;27;20034;-44
2023/07/30 01:39:47;;;;;;;8.98;6.78;;;;;;;20.24;100.00;98660.63;5131783;27;20024;-44
2023/07/30 01:42:13;;;;;;;7.68;5.53;;;;;;;20.33;100.00;98666.25;5132847;27;20024;-44
2023/07/30 01:44:39;;;;;;;13.27;5.70;;;;;;;20.71;100.00;98670.28;5132821;27;20492;-44
2023/07/30 01:47:05;;;;;;;10.65;5.35;;;;;;;21.29;100.00;98661.94;5131484;28;20031;-45
2023/07/30 01:49:30;;;;;;;9.48;5.15;;;;;;;21.75;100.00;98658.31;5132701;28;20081;-45
2023/07/30 01:51:56;;;;;;;9.30;6.53;;;;;;;21.97;100.00;98657.16;5132679;27;20019;-45
2023/07/30 01:54:22;;;;;;;16.52;9.27;;;;;;;22.17;100.00;98658.91;5131226;28;20497;-45
2023/07/30 01:56:47;;;;;;;20.15;5.30;;;;;;;22.33;100.00;98657.78;5132724;27;20500;-45
2023/07/30 01:59:13;;;;;;;14.35;4.80;;;;;;;22.26;100.00;98651.94;5132660;27;20485;-46
2023/07/30 02:01:39;;;;;;;11.75;5.05;;;;;;;22.32;100.00;98653.50;5132551;28;20018;-45
2023/07/30 02:04:04;;;;;;;11.45;5.20;;;;;;;22.21;100.00;98651.94;5131014;28;20504;-46
2023/07/30 02:06:30;;;;;;;19.10;10.05;;;;;;;22.23;100.00;98647.13;5131260;28;20039;-45
2023/07/30 02:08:56;;;;;;;10.23;6.03;;;;;;;22.25;100.00;98653.00;5132564;27;20060;-46
2023/07/30 02:11:21;;;;;;;10.05;4.75;;;;;;;22.27;100.00;98648.19;5132615;27;20038;-46
2023/07/30 02:13:47;;;;;;;15.05;5.40;;;;;;;22.32;100.00;98656.97;5132672;28;20104;-46
2023/07/30 02:16:12;;;;;;;16.58;4.75;;;;;;;22.54;100.00;98653.09;5131144;28;20034;-46
2023/07/30 02:18:38;;;;;;;16.17;9.57;;;;;;;22.63;100.00;98659.41;5131213;28;20051;-45
2023/07/30 02:21:04;;;;;;;9.48;4.30;;;;;;;22.54;100.00;98645.84;5132651;27;20727;-46
2023/07/30 02:23:29;;;;;;;9.68;4.50;;;;;;;22.32;100.00;98648.97;5131122;28;20027;-45
2023/07/30 02:25:55;;;;;;;13.18;4.35;;;;;;;22.40;100.00;98652.13;5132545;27;20027;-45
2023/07/30 02:28:21;;;;;;;15.00;4.90;;;;;;;22.68;100.00;98656.72;5136318;27;20388;-46
2023/07/30 02:30:49;;;;;;;10.43;4.20;;;;;;;22.81;100.00;98665.97;5136257;27;20019;-46
2023/07/30 02:33:15;;;;;;;10.75;4.95;;;;;;;22.47;100.00;98669.44;5136430;27;20374;-46
2023/07/30 02:35:42;;;;;;;10.50;5.80;;;;;;;22.18;100.00;98665.88;5134836;27;20037;-46
2023/07/30 02:38:08;;;;;;;12.93;5.95;;;;;;;22.39;100.00;98658.53;5136132;27;20488;-45
2023/07/30 02:40:33;;;;;;;11.75;5.50;;;;;;;22.48;100.00;98668.38;5136140;27;20083;-45
2023/07/30 02:42:59;;;;;;;6.93;5.32;;;;;;;22.37;100.00;98666.84;5135104;27;20033;-45
2023/07/30 02:45:25;;;;;;;14.88;7.15;;;;;;;22.04;100.00;98671.81;5134720;27;20023;-46
2023/07/30 02:47:51;;;;;;;14.60;6.28;;;;;;;21.99;100.00;98674.50;5136005;27;20106;-45
2023/07/30 02:50:17;;;;;;;22.63;9.73;;;;;;;22.36;100.00;98675.94;5135833;27;20074;-46
2023/07/30 02:52:42;;;;;;;7.60;4.68;;;;;;;22.73;100.00;98678.06;5134497;27;20027;-46
2023/07/30 02:55:08;;;;;;;13.23;4.80;;;;;;;22.96;100.00;98669.56;5134460;27;20027;-46
2023/07/30 02:57:34;;;;;;;35.10;18.50;;;;;;;23.13;100.00;98659.28;5135767;27;20019;-46
2023/07/30 02:59:59;;;;;;;9.80;5.85;;;;;;;23.22;100.00;98662.94;5135726;27;20030;-46
2023/07/30 03:02:25;;;;;;;12.93;6.18;;;;;;;23.33;100.00;98668.97;5135755;27;20024;-46
2023/07/30 03:04:51;;;;;;;13.13;5.18;;;;;;;23.39;100.00;98672.41;5135432;27;20070;-45
2023/07/30 03:07:18;;;;;;;15.90;7.72;;;;;;;23.41;100.00;98672.91;5135600;27;20065;-45
2023/07/30 03:09:43;;;;;;;14.27;5.25;;;;;;;23.48;100.00;98676.03;5135587;27;20047;-45
2023/07/30 03:12:09;;;;;;;17.50;6.07;;;;;;;23.49;100.00;98675.75;5134170;27;20119;-46
2023/07/30 03:14:35;;;;;;;12.40;4.43;;;;;;;23.55;100.00;98667.66;5135377;27;20031;-46
2023/07/30 03:17:01;;;;;;;21.30;5.82;;;;;;;23.66;100.00;98674.47;5135375;27;20038;-45
2023/07/30 03:19:26;;;;;;;10.13;5.00;;;;;;;23.73;100.00;98670.38;5134345;27;20023;-46
2023/07/30 03:21:52;;;;;;;7.13;3.83;;;;;;;23.59;100.00;98674.03;5135328;27;20031;-45
2023/07/30 03:24:17;;;;;;;9.50;4.45;;;;;;;23.49;100.00;98675.75;5135320;27;20022;-46
2023/07/30 03:26:43;;;;;;;16.52;6.00;;;;;;;23.53;100.00;98679.44;5134187;27;20370;-45
2023/07/30 03:29:09;;;;;;;8.15;4.38;;;;;;;23.55;100.00;98681.06;5135233;27;20491;-47
2023/07/30 03:31:34;;;;;;;14.57;5.35;;;;;;;23.63;100.00;98680.44;5135089;27;20462;-46
2023/07/30 03:34:00;;;;;;;12.05;5.65;;;;;;;23.57;99.98;98681.56;5135014;27;20067;-46
2023/07/30 03:36:26;;;;;;;9.52;4.93;;;;;;;23.53;99.21;98690.16;5133537;27;20026;-46
2023/07/30 03:38:51;;;;;;;8.60;4.35;;;;;;;23.52;99.82;98688.59;5133891;27;20020;-46
2023/07/30 03:41:17;;;;;;;12.57;5.00;;;;;;;23.47;99.74;98691.31;5134959;27;20030;-46
2023/07/30 03:43:43;;;;;;;17.05;6.65;;;;;;;23.32;99.35;98694.97;5134898;27;20072;-46
2023/07/30 03:46:11;;;;;;;16.90;5.63;;;;;;;23.11;98.72;98699.69;5133520;27;20457;-46
2023/07/30 03:48:38;;;;;;;16.73;9.40;;;;;;;22.78;98.35;98701.31;5135079;27;20370;-46
2023/07/30 03:51:04;;;;;;;20.60;6.55;;;;;;;22.59;99.44;98701.19;5134755;27;20043;-46
2023/07/30 03:53:29;;;;;;;8.63;4.47;;;;;;;22.43;100.00;98700.47;5134702;27;20479;-46
2023/07/30 03:55:55;;;;;;;11.50;5.75;;;;;;;22.36;100.00;98707.25;5134645;27;20388;-46
2023/07/30 03:58:21;;;;;;;16.40;5.82;;;;;;;22.62;100.00;98713.22;5134629;27;20023;-46
2023/07/30 04:00:46;;;;;;;13.77;5.03;;;;;;;22.81;100.00;98713.34;5133540;27;20026;-46
2023/07/30 04:03:12;;;;;;;7.40;3.72;;;;;;;22.93;100.00;98713.75;5134588;27;20446;-46
2023/07/30 04:05:38;;;;;;;17.10;5.13;;;;;;;23.05;100.00;98726.81;5133017;27;20477;-46
2023/07/30 04:08:03;;;;;;;7.70;4.15;;;;;;;23.05;100.00;98726.81;5133432;27;20030;-47
2023/07/30 04:10:29;;;;;;;10.27;4.75;;;;;;;22.95;100.00;98727.66;5134397;27;20106;-46
2023/07/30 04:12:54;;;;;;;14.07;6.68;;;;;;;23.05;100.00;98732.16;5134297;27;20492;-46
2023/07/30 04:15:20;;;;;;;8.38;5.28;;;;;;;23.11;100.00;98729.16;5132909;27;20029;-46
2023/07/30 04:17:49;;;;;;;16.38;5.53;;;;;;;23.23;100.00;98733.34;5132927;27;20079;-46
2023/07/30 04:20:14;;;;;;;13.77;5.53;;;;;;;23.22;100.00;98731.72;5134440;27;20798;-46
2023/07/30 04:22:41;;;;;;;10.05;5.53;;;;;;;23.27;100.00;98735.16;5134110;27;20023;-46
2023/07/30 04:25:08;;;;;;;14.43;6.63;;;;;;;23.36;100.00;98742.59;5134082;27;20030;-46
2023/07/30 04:27:34;;;;;;;22.67;7.82;;;;;;;23.00;100.00;98740.19;5132732;27;20066;-45
2023/07/30 04:30:00;;;;;;;22.65;6.70;;;;;;;22.59;100.00;98743.97;5133995;27;20019;-46
2023/07/30 04:32:25;;;;;;;34.22;8.52;;;;;;;22.40;100.00;98753.75;5133911;27;20523;-45
2023/07/30 04:34:51;;;;;;;18.77;8.77;;;;;;;22.08;100.00;98749.59;5133822;27;20792;-47
2023/07/30 04:37:17;;;;;;;29.20;8.15;;;;;;;22.04;100.00;98767.25;5132507;27;20025;-45
2023/07/30 04:39:42;;;;;;;88.63;9.05;;;;;;;22.24;100.00;98782.44;5133786;27;20019;-45
2023/07/30 04:42:08;;;;;;;17.63;7.65;;;;;;;22.24;100.00;98772.53;5133780;27;20012;-46
2023/07/30 04:44:34;;;;;;;10.30;7.03;;;;;;;22.24;100.00;98772.53;5133980;27;20059;-46
2023/07/30 04:47:00;;;;;;;36.78;6.32;;;;;;;22.45;100.00;98770.53;5132436;27;20485;-46
2023/07/30 04:49:28;;;;;;;13.82;5.97;;;;;;;22.58;100.00;98760.28;5133355;27;20024;-46
2023/07/30 04:51:54;;;;;;;13.65;6.38;;;;;;;22.73;100.00;98755.66;5133575;27;20080;-46
2023/07/30 04:54:19;;;;;;;14.68;5.60;;;;;;;22.80;100.00;98762.56;5133467;27;20023;-46
2023/07/30 04:56:45;;;;;;;12.85;5.47;;;;;;;22.81;100.00;98769.53;5133489;27;20023;-46
2023/07/30 04:59:10;;;;;;;33.08;7.15;;;;;;;22.98;100.00;98777.16;5133735;27;20031;-46
2023/07/30 05:01:36;;;;;;;10.15;6.72;;;;;;;23.03;100.00;98772.59;5132096;27;20023;-46
2023/07/30 05:04:02;;;;;;;14.10;6.78;;;;;;;23.23;100.00;98771.63;5133062;27;20042;-46
2023/07/30 05:06:27;;;;;;;32.72;6.07;;;;;;;23.50;100.00;98771.13;5133364;27;20023;-46
2023/07/30 05:08:54;;;;;;;13.98;5.88;;;;;;;24.21;100.00;98766.06;5133203;27;20496;-46
2023/07/30 05:11:20;;;;;;;25.70;6.72;;;;;;;25.18;94.97;98761.16;5133218;27;20102;-46
2023/07/30 05:13:45;;;;;;;9.32;5.22;;;;;;;25.78;89.91;98756.88;5133119;27;20111;-46
2023/07/30 05:16:11;;;;;;;8.40;4.75;;;;;;;26.41;87.66;98758.03;5133088;27;20030;-46
2023/07/30 05:18:39;;;;;;;16.10;5.22;;;;;;;26.76;85.87;98763.72;5133164;27;20076;-46
2023/07/30 05:21:05;;;;;;;10.73;5.53;;;;;;;27.05;84.74;98768.69;5133133;27;20454;-46
2023/07/30 05:23:31;;;;;;;12.77;5.95;;;;;;;27.53;81.97;98767.19;5133073;27;20015;-46
2023/07/30 05:25:56;;;;;;;5.78;3.72;;;;;;;28.20;78.41;98763.50;5131947;27;20488;-46
2023/07/30 05:28:22;;;;;;;8.63;3.97;;;;;;;28.19;74.88;98772.69;5132965;27;20504;-46
2023/07/30 05:30:50;;;;;;;21.70;5.80;;;;;;;27.85;76.71;98776.88;5132923;27;20031;-46
2023/07/30 05:33:15;;;;;;;16.60;6.47;;;;;;;27.54;77.83;98782.28;5132823;27;20019;-46
2023/07/30 05:35:41;;;;;;;14.73;5.20;;;;;;;27.04;80.27;98788.63;5131910;27;20039;-46
2023/07/30 05:38:07;;;;;;;6.47;4.25;;;;;;;26.48;82.54;98794.19;5132899;27;20047;-46
2023/07/30 05:40:34;;;;;;;11.02;4.22;;;;;;;26.00;84.28;98800.03;5132775;27;20565;-46
2023/07/30 05:43:00;;;;;;;8.85;4.63;;;;;;;25.59;85.92;98806.13;5132836;27;20455;-46
2023/07/30 05:45:26;;;;;;;7.97;4.22;;;;;;;25.08;86.84;98807.75;5131433;27;20087;-46
2023/07/30 05:47:52;;;;;;;8.77;4.80;;;;;;;24.45;87.26;98808.13;5131379;28;20453;-46
2023/07/30 05:50:20;;;;;;;8.52;4.55;;;;;;;23.99;88.89;98819.41;5132775;27;20121;-46
2023/07/30 05:52:46;;;;;;;5.65;4.68;;;;;;;23.88;90.80;98816.81;5131311;28;20118;-46
2023/07/30 05:55:12;;;;;;;11.52;5.07;;;;;;;23.68;91.24;98827.72;5132704;27;20110;-46
2023/07/30 05:57:37;;;;;;;17.80;5.35;;;;;;;23.47;91.99;98827.13;5131324;28;20613;-46
2023/07/30 06:00:03;;;;;;;9.30;4.80;;;;;;;23.48;94.27;98826.84;5132709;27;20102;-46
2023/07/30 06:02:29;;;;;;;10.85;4.60;;;;;;;24.07;94.92;98827.63;5136924;27;20102;-46
2023/07/30 06:04:55;;;;;;;6.75;4.38;;;;;;;24.45;91.15;98832.28;5136655;27;20130;-46
2023/07/30 06:07:20;;;;;;;4.00;3.60;;;;;;;24.63;91.28;98834.22;5136877;27;20427;-46
2023/07/30 06:09:46;;;;;;;14.13;5.63;;;;;;;24.80;91.56;98836.38;5135728;27;20545;-46
2023/07/30 06:12:12;;;;;;;9.38;4.20;;;;;;;25.09;91.15;98846.97;5135403;27;20050;-46
2023/07/30 06:14:37;;;;;;;13.98;4.30;;;;;;;25.56;89.12;98849.75;5136566;27;20102;-46
2023/07/30 06:17:03;;;;;;;7.80;4.35;;;;;;;26.11;85.20;98839.06;5136525;27;20203;-46
2023/07/30 06:19:29;;;;;;;12.27;4.00;;;;;;;26.65;85.15;98842.03;5136614;27;20089;-46
2023/07/30 06:21:58;;;;;;;12.35;4.50;;;;;;;29.04;75.34;98826.31;5136716;27;20030;-46
2023/07/30 06:24:23;;;;;;;6.55;3.95;;;;;;;31.28;65.75;98823.13;5136494;27;20034;-46
2023/07/30 06:26:49;;;;;;;10.50;3.90;;;;;;;33.17;60.68;98817.38;5136598;27;20016;-46
2023/07/30 06:29:15;;;;;;;7.05;3.97;;;;;;;34.83;54.73;98816.59;5136373;27;20426;-45
2023/07/30 06:31:40;;;;;;;11.23;3.72;;;;;;;35.90;51.48;98817.78;5136263;27;20514;-46
2023/07/30 06:34:06;;;;;;;8.20;3.80;;;;;;;36.81;49.15;98814.34;5135203;27;20098;-46
2023/07/30 06:36:32;;;;;;;7.85;3.80;;;;;;;37.19;47.49;98813.22;5136257;27;20087;-46
2023/07/30 06:38:57;;;;;;;7.75;3.33;;;;;;;37.43;45.96;98813.81;5134767;27;20101;-46
2023/07/30 06:41:23;;;;;;;7.28;3.90;;;;;;;37.54;45.21;98812.75;5135185;27;20023;-46
2023/07/30 06:43:49;;;;;;;7.72;3.25;;;;;;;38.08;44.77;98813.22;5136051;27;20019;-46
2023/07/30 06:46:14;;;;;;;8.45;3.70;;;;;;;38.66;44.10;98808.06;5135966;27;20019;-46
2023/07/30 06:48:40;;;;;;;7.65;3.85;;;;;;;38.88;43.02;98811.66;5135954;27;20016;-46
2023/07/30 06:51:07;;;;;;;12.05;4.60;;;;;;;38.59;42.76;98810.75;5135978;27;20027;-46
2023/07/30 06:53:33;;;;;;;9.55;4.30;;;;;;;37.12;43.96;98818.63;5134506;27;20015;-46
2023/07/30 06:55:58;;;;;;;8.45;4.20;;;;;;;35.88;47.74;98822.81;5135877;27;20031;-46
2023/07/30 06:58:24;;;;;;;7.00;4.43;;;;;;;34.15;50.70;98837.75;5134505;27;20098;-46
2023/07/30 07:00:50;;;;;;;8.38;5.60;;;;;;;32.41;54.77;98840.78;5135751;27;20027;-46
2023/07/30 07:03:15;;;;;;;9.82;5.38;;;;;;;31.09;58.86;98848.03;5134486;27;20027;-46
2023/07/30 07:05:41;;;;;;;11.57;5.80;;;;;;;30.34;60.34;98852.19;5135500;27;20455;-46
2023/07/30 07:08:06;;;;;;;12.82;6.22;;;;;;;29.78;63.09;98851.47;5135650;27;20015;-46
2023/07/30 07:10:32;;;;;;;11.25;6.07;;;;;;;29.19;65.18;98860.19;5135614;27;20441;-46
2023/07/30 07:12:58;;;;;;;9.27;6.43;;;;;;;28.83;67.18;98862.03;5134913;27;20023;-46
2023/07/30 07:15:23;;;;;;;11.40;5.07;;;;;;;30.98;62.47;98866.63;5135561;27;20027;-46
2023/07/30 07:17:49;;;;;;;8.25;5.45;;;;;;;32.81;56.30;98865.28;5135508;27;20106;-46
2023/07/30 07:20:15;;;;;;;7.03;5.10;;;;;;;34.14;53.13;98859.88;5134053;27;20027;-46
2023/07/30 07:22:40;;;;;;;9.25;4.03;;;;;;;35.16;50.31;98851.56;5135601;27;20031;-46
2023/07/30 07:25:06;;;;;;;6.93;4.40;;;;;;;35.71;49.17;98862.31;5135294;27;20015;-47
2023/07/30 07:27:32;;;;;;;7.13;4.97;;;;;;;36.18;49.16;98858.44;5133987;27;20362;-46
2023/07/30 07:30:01;;;;;;;7.60;4.10;;;;;;;36.69;47.61;98867.34;5135139;27;20020;-47
2023/07/30 07:32:27;;;;;;;11.57;5.07;;;;;;;36.71;47.79;98859.56;5133852;27;20030;-46
2023/07/30 07:34:52;;;;;;;5.00;3.60;;;;;;;36.45;49.92;98863.88;5135054;27;20031;-47
2023/07/30 07:37:18;;;;;;;8.38;3.03;;;;;;;36.19;49.26;98867.41;5135054;27;20024;-47
2023/07/30 07:39:47;;;;;;;9.00;2.35;;;;;;;35.04;50.24;98872.75;5135033;27;20075;-46
2023/07/30 07:42:13;;;;;;;3.55;2.10;;;;;;;33.80;50.53;98873.03;5135277;27;20042;-46
2023/07/30 07:44:39;;;;;;;10.80;2.42;;;;;;;32.24;52.45;98879.84;5134971;27;20571;-46
2023/07/30 07:47:07;;;;;;;5.70;1.80;;;;;;;31.06;52.70;98887.44;5134913;27;20246;-46
2023/07/30 07:49:35;;;;;;;11.95;2.10;;;;;;;30.23;53.66;98889.66;5134853;27;20027;-46
2023/07/30 07:52:00;;;;;;;7.45;1.60;;;;;;;29.56;55.66;98899.25;5133610;27;20019;-46
2023/07/30 07:54:26;;;;;;;2.70;1.55;;;;;;;28.78;56.06;98897.34;5133366;27;20031;-46
2023/07/30 07:56:54;;;;;;;4.43;1.63;;;;;;;28.16;59.02;98892.06;5133335;27;20417;-46
2023/07/30 07:59:19;;;;;;;3.95;2.20;;;;;;;27.92;60.08;98892.44;5133363;27;20446;-46
2023/07/30 08:01:45;;;;;;;7.72;1.63;;;;;;;27.85;60.93;98895.56;5134578;27;20027;-46
2023/07/30 08:04:11;;;;;;;2.92;1.70;;;;;;;28.18;61.39;98896.03;5134332;27;20039;-46
2023/07/30 08:06:36;;;;;;;7.65;1.95;;;;;;;28.34;61.49;98893.72;5134555;27;20015;-46
2023/07/30 08:09:02;;;;;;;10.27;2.20;;;;;;;28.29;62.52;98891.97;5133115;27;20031;-46
2023/07/30 08:11:30;;;;;;;3.88;1.98;;;;;;;28.82;62.33;98892.09;5133019;27;20503;-46
2023/07/30 08:13:57;;;;;;;3.47;1.55;;;;;;;30.25;57.95;98892.06;5134223;27;20023;-46
2023/07/30 08:16:22;;;;;;;3.40;1.75;;;;;;;31.58;54.75;98881.56;5134324;27;20055;-46
2023/07/30 08:18:48;;;;;;;6.47;1.88;;;;;;;32.90;51.75;98889.63;5132962;27;20053;-46
2023/07/30 08:21:17;;;;;;;2.70;1.40;;;;;;;34.10;48.70;98881.56;5134239;27;20058;-46
2023/07/30 08:23:43;;;;;;;1.52;1.30;;;;;;;35.44;45.77;98886.00;5133498;27;20019;-46
2023/07/30 08:26:08;;;;;;;4.55;1.50;;;;;;;36.72;43.27;98888.47;5133117;27;20441;-46
2023/07/30 08:28:34;;;;;;;3.70;1.48;;;;;;;37.83;40.89;98886.19;5134326;27;20388;-46
2023/07/30 08:31:03;;;;;;;6.45;1.73;;;;;;;38.58;39.04;98884.03;5134039;27;20484;-47
2023/07/30 08:33:29;;;;;;;4.65;1.70;;;;;;;37.82;39.82;98885.41;5132677;27;20035;-47
2023/07/30 08:35:56;;;;;;;2.90;1.83;;;;;;;38.05;39.00;98882.47;5133941;27;20020;-47
2023/07/30 08:38:22;;;;;;;8.65;2.70;;;;;;;37.71;37.89;98887.25;5132603;27;20031;-46
2023/07/30 08:40:47;;;;;;;3.13;1.65;;;;;;;36.50;39.44;98893.63;5133820;27;20023;-46
2023/07/30 08:43:14;;;;;;;8.10;2.15;;;;;;;34.67;42.50;98893.03;5134072;27;20027;-47
2023/07/30 08:45:39;;;;;;;10.20;3.10;;;;;;;34.55;45.12;98899.38;5133733;27;20027;-47
2023/07/30 08:48:05;;;;;;;8.90;2.15;;;;;;;36.86;42.09;98883.19;5133628;27;20023;-46
2023/07/30 08:50:32;;;;;;;5.57;1.90;;;;;;;38.61;38.26;98875.03;5133580;27;20030;-47
2023/07/30 08:53:00;;;;;;;6.57;1.95;;;;;;;39.00;35.60;98890.09;5133569;27;20060;-46
2023/07/30 08:55:29;;;;;;;4.18;1.90;;;;;;;37.83;35.47;98888.94;5133633;27;20101;-47
2023/07/30 08:57:57;;;;;;;3.10;1.30;;;;;;;38.10;35.66;98884.88;5133658;27;20023;-47
2023/07/30 09:00:25;;;;;;;5.57;1.40;;;;;;;39.43;33.68;98882.78;5133408;27;20402;-47
2023/07/30 09:02:54;;;;;;;5.43;1.80;;;;;;;40.70;32.29;98874.06;5132163;27;20097;-47
2023/07/30 09:05:22;;;;;;;3.38;1.58;;;;;;;41.87;31.08;98882.06;5131856;27;20127;-47
2023/07/30 09:07:48;;;;;;;3.58;1.45;;;;;;;42.31;28.65;98874.97;5133303;27;20015;-50
2023/07/30 09:10:15;;;;;;;4.82;1.63;;;;;;;42.65;27.46;98876.22;5131997;27;20094;-50
2023/07/30 09:12:41;;;;;;;3.78;1.60;;;;;;;43.51;27.85;98871.53;5131897;27;20437;-50
2023/07/30 09:15:07;;;;;;;2.00;1.58;;;;;;;43.41;26.28;98873.28;5133254;27;20055;-49
2023/07/30 09:17:34;;;;;;;4.15;1.70;;;;;;;42.89;25.10;98864.09;5131936;27;20019;-49
2023/07/30 09:20:01;;;;;;;5.05;1.67;;;;;;;43.12;23.12;98868.13;5131981;27;20084;-50
2023/07/30 09:22:40;;;;;;;4.30;1.40;;;;;;;42.97;21.43;98873.06;5133131;27;20114;-49
2023/07/30 09:25:07;;;;;;;3.47;1.55;;;;;;;43.39;20.46;98864.63;5131793;27;20168;-49
2023/07/30 09:27:33;;;;;;;5.57;1.42;;;;;;;43.05;20.33;98868.25;5131762;27;20019;-49
2023/07/30 09:30:01;;;;;;;7.07;1.88;;;;;;;41.01;21.91;98871.63;5133027;27;20031;-49
2023/07/30 09:32:28;;;;;;;3.67;1.48;;;;;;;38.52;24.52;98880.09;5132957;27;20111;-49
2023/07/30 09:34:54;;;;;;;3.67;1.55;;;;;;;36.54;26.34;98893.66;5132611;27;20038;-49
2023/07/30 09:37:20;;;;;;;5.63;1.35;;;;;;;35.82;27.65;98880.81;5132901;27;20016;-46
2023/07/30 09:39:48;;;;;;;5.95;1.98;;;;;;;37.22;26.06;98885.59;5132814;27;20176;-46
2023/07/30 09:42:16;;;;;;;3.38;1.55;;;;;;;38.94;23.73;98890.47;5132855;27;20064;-47
2023/07/30 09:44:42;;;;;;;5.35;1.67;;;;;;;40.23;22.25;98886.38;5132841;27;20400;-48
2023/07/30 09:47:10;;;;;;;7.32;1.60;;;;;;;41.47;20.87;98878.81;5132857;27;20030;-47
2023/07/30 09:49:39;;;;;;;9.75;2.00;;;;;;;42.06;20.11;98888.25;5132984;28;20038;-50
2023/07/30 09:52:05;;;;;;;2.70;1.20;;;;;;;42.20;19.64;98877.09;5131551;28;20106;-49
2023/07/30 09:54:33;;;;;;;4.65;1.60;;;;;;;42.44;20.28;98880.00;5132695;27;20023;-49
2023/07/30 09:56:59;;;;;;;4.00;1.30;;;;;;;42.43;19.65;98881.19;5132670;27;20057;-50
2023/07/30 09:59:24;;;;;;;10.75;2.95;;;;;;;42.40;20.06;98873.72;5132715;27;20058;-50
2023/07/30 10:01:55;;;;;;;2.72;1.40;;;;;;;42.54;18.94;98868.06;5132972;27;20027;-50
2023/07/30 10:04:22;;;;;;;3.92;1.20;;;;;;;42.62;19.25;98863.22;5132396;27;20055;-49
2023/07/30 10:07:01;;;;;;;4.10;1.40;;;;;;;42.22;19.13;98863.66;5132572;27;20023;-49
2023/07/30 10:09:30;;;;;;;6.50;1.65;;;;;;;40.36;20.43;98865.53;5131338;28;20035;-50
2023/07/30 10:11:58;;;;;;;4.68;1.30;;;;;;;39.88;21.26;98858.50;5132555;27;20019;-49
2023/07/30 10:14:25;;;;;;;5.75;1.30;;;;;;;40.44;20.83;98855.31;5132499;27;20019;-49
2023/07/30 10:16:57;;;;;;;3.30;1.67;;;;;;;40.93;20.11;98854.34;5131202;28;20485;-49
2023/07/30 10:19:24;;;;;;;4.10;1.50;;;;;;;41.25;19.25;98858.91;5132807;27;20434;-49
2023/07/30 10:21:50;;;;;;;5.15;1.02;;;;;;;41.69;18.74;98856.63;5131131;28;20031;-50
2023/07/30 10:24:17;;;;;;;4.53;1.17;;;;;;;41.71;18.63;98857.00;5131205;28;20106;-50
2023/07/30 10:26:43;;;;;;;8.13;1.85;;;;;;;41.84;19.01;98855.34;5131067;28;20388;-50
2023/07/30 10:29:13;;;;;;;15.32;3.05;;;;;;;40.81;20.13;98857.56;5131048;28;20028;-50
2023/07/30 10:31:40;;;;;;;3.30;1.45;;;;;;;39.12;21.68;98854.88;5132611;28;20126;-49
2023/07/30 10:34:10;;;;;;;4.07;2.00;;;;;;;37.40;22.60;98866.59;5131034;28;20449;-49
2023/07/30 10:36:50;;;;;;;5.50;1.83;;;;;;;37.61;23.26;98866.03;5132300;27;20515;-49
2023/07/30 10:39:17;;;;;;;6.97;1.50;;;;;;;38.45;22.05;98863.53;5131101;28;20034;-49
2023/07/30 10:41:48;;;;;;;3.72;1.38;;;;;;;39.13;20.57;98861.91;5132253;27;20031;-49
2023/07/30 10:44:19;;;;;;;12.35;2.55;;;;;;;40.08;20.29;98866.34;5132357;27;20031;-50
2023/07/30 10:46:45;;;;;;;7.88;1.85;;;;;;;40.71;19.29;98859.13;5133391;27;20039;-50
2023/07/30 10:49:12;;;;;;;9.90;2.13;;;;;;;41.40;19.10;98856.06;5135960;27;20395;-50
2023/07/30 10:51:37;;;;;;;5.45;1.48;;;;;;;41.91;18.53;98860.00;5136259;27;20027;-49
2023/07/30 10:54:07;;;;;;;3.80;1.60;;;;;;;41.43;18.86;98845.00;5134530;27;20087;-50
2023/07/30 10:56:36;;;;;;;2.33;1.33;;;;;;;40.47;19.75;98858.03;5135871;27;20019;-49
2023/07/30 10:59:04;;;;;;;14.57;2.33;;;;;;;40.19;20.06;98850.63;5135790;27;20023;-49
2023/07/30 11:01:30;;;;;;;2.10;1.40;;;;;;;40.91;19.48;98851.22;5135756;27;20016;-50
2023/07/30 11:03:56;;;;;;;4.22;1.50;;;;;;;41.04;19.00;98851.53;5134282;27;20042;-50
2023/07/30 11:06:23;;;;;;;5.20;1.52;;;;;;;40.92;19.38;98863.00;5134431;27;20039;-50
2023/07/30 11:08:48;;;;;;;3.42;1.60;;;;;;;40.22;19.79;98863.56;5135720;27;20020;-50
2023/07/30 11:11:14;;;;;;;2.95;1.42;;;;;;;39.42;20.49;98861.22;5135710;27;20033;-50
2023/07/30 11:13:42;;;;;;;3.00;1.25;;;;;;;39.28;20.13;98857.25;5135517;27;20042;-49
2023/07/30 11:16:10;;;;;;;3.28;1.35;;;;;;;39.29;20.33;98852.53;5135520;27;20019;-50
2023/07/30 11:18:37;;;;;;;3.60;1.50;;;;;;;39.34;20.17;98863.13;5135483;27;20027;-49
2023/07/30 11:21:07;;;;;;;8.30;2.10;;;;;;;39.20;19.37;98863.91;5135326;27;20107;-49
2023/07/30 11:23:34;;;;;;;3.90;1.40;;;;;;;39.38;19.38;98854.91;5134156;27;20316;-49